sensor_id;sensor_type;location;lat;lon;timestamp;P1;durP1;ratioP1;P2;durP2;ratioP2
17363;SDS011;8799;43.594;13.526;2023-11-21T00:00:21;3.60;;;2.07;;
17363;SDS011;8799;43.594;13.526;2023-11-21T00:02:49;4.50;;;2.23;;
17363;SDS011;8799;43.594;13.526;2023-11-21T00:05:17;2.37;;;1.80;;
17363;SDS011;8799;43.594;13.526;2023-11-21T00:07:45;2.67;;;1.80;;
17363;SDS011;8799;43.594;13.526;2023-11-21T00:10:13;5.27;;;1.73;;
17363;SDS011;8799;43.594;13.526;2023-11-21T00:12:41;2.40;;;1.60;;
17363;SDS011;8799;43.594;13.526;2023-11-21T00:15:09;4.00;;;1.80;;
17363;SDS011;8799;43.594;13.526;2023-11-21T00:17:39;2.43;;;1.50;;
17363;SDS011;8799;43.594;13.526;2023-11-21T00:20:08;2.73;;;1.87;;
17363;SDS011;8799;43.594;13.526;2023-11-21T00:22:38;2.23;;;1.50;;
17363;SDS011;8799;43.594;13.526;2023-11-21T00:25:06;3.97;;;2.10;;
17363;SDS011;8799;43.594;13.526;2023-11-21T00:27:34;3.67;;;1.60;;
17363;SDS011;8799;43.594;13.526;2023-11-21T00:30:02;2.80;;;1.83;;
17363;SDS011;8799;43.594;13.526;2023-11-21T00:32:32;4.20;;;1.93;;
17363;SDS011;8799;43.594;13.526;2023-11-21T00:35:02;4.07;;;2.00;;
17363;SDS011;8799;43.594;13.526;2023-11-21T00:37:29;3.43;;;1.90;;
17363;SDS011;8799;43.594;13.526;2023-11-21T00:39:58;2.37;;;1.70;;
17363;SDS011;8799;43.594;13.526;2023-11-21T00:42:25;2.57;;;2.03;;
17363;SDS011;8799;43.594;13.526;2023-11-21T00:44:53;4.27;;;1.90;;
17363;SDS011;8799;43.594;13.526;2023-11-21T00:47:22;3.87;;;1.93;;
17363;SDS011;8799;43.594;13.526;2023-11-21T00:49:50;2.80;;;1.90;;
17363;SDS011;8799;43.594;13.526;2023-11-21T00:52:19;5.90;;;1.60;;
17363;SDS011;8799;43.594;13.526;2023-11-21T00:54:47;2.53;;;1.70;;
17363;SDS011;8799;43.594;13.526;2023-11-21T00:57:15;4.50;;;1.93;;
17363;SDS011;8799;43.594;13.526;2023-11-21T00:59:43;2.17;;;1.60;;
17363;SDS011;8799;43.594;13.526;2023-11-21T01:02:11;3.20;;;1.90;;
17363;SDS011;8799;43.594;13.526;2023-11-21T01:04:39;1.97;;;1.73;;
17363;SDS011;8799;43.594;13.526;2023-11-21T01:07:07;2.83;;;1.73;;
17363;SDS011;8799;43.594;13.526;2023-11-21T01:09:36;3.17;;;1.90;;
17363;SDS011;8799;43.594;13.526;2023-11-21T01:12:05;2.40;;;1.70;;
17363;SDS011;8799;43.594;13.526;2023-11-21T01:14:33;2.83;;;1.70;;
17363;SDS011;8799;43.594;13.526;2023-11-21T01:17:02;7.47;;;1.60;;
17363;SDS011;8799;43.594;13.526;2023-11-21T01:19:30;3.00;;;2.23;;
17363;SDS011;8799;43.594;13.526;2023-11-21T01:21:58;2.57;;;1.40;;
17363;SDS011;8799;43.594;13.526;2023-11-21T01:24:26;2.70;;;1.60;;
17363;SDS011;8799;43.594;13.526;2023-11-21T01:26:56;2.53;;;1.70;;
17363;SDS011;8799;43.594;13.526;2023-11-21T01:29:24;3.27;;;2.10;;
17363;SDS011;8799;43.594;13.526;2023-11-21T01:31:52;2.80;;;1.60;;
17363;SDS011;8799;43.594;13.526;2023-11-21T01:34:20;4.20;;;2.20;;
17363;SDS011;8799;43.594;13.526;2023-11-21T01:36:48;3.60;;;1.80;;
17363;SDS011;8799;43.594;13.526;2023-11-21T01:39:16;2.67;;;1.43;;
17363;SDS011;8799;43.594;13.526;2023-11-21T01:41:48;4.33;;;1.80;;
17363;SDS011;8799;43.594;13.526;2023-11-21T01:44:18;2.57;;;1.70;;
17363;SDS011;8799;43.594;13.526;2023-11-21T01:46:46;1.27;;;1.13;;
17363;SDS011;8799;43.594;13.526;2023-11-21T01:49:14;3.50;;;1.60;;
17363;SDS011;8799;43.594;13.526;2023-11-21T01:51:43;6.90;;;1.70;;
17363;SDS011;8799;43.594;13.526;2023-11-21T01:54:12;2.87;;;1.50;;
17363;SDS011;8799;43.594;13.526;2023-11-21T01:56:40;1.93;;;1.40;;
17363;SDS011;8799;43.594;13.526;2023-11-21T01:59:08;4.30;;;1.83;;
17363;SDS011;8799;43.594;13.526;2023-11-21T02:01:37;2.50;;;1.73;;
17363;SDS011;8799;43.594;13.526;2023-11-21T02:04:05;3.87;;;1.60;;
17363;SDS011;8799;43.594;13.526;2023-11-21T02:06:33;3.77;;;1.97;;
17363;SDS011;8799;43.594;13.526;2023-11-21T02:09:01;3.73;;;1.50;;
17363;SDS011;8799;43.594;13.526;2023-11-21T02:11:29;2.63;;;1.80;;
17363;SDS011;8799;43.594;13.526;2023-11-21T02:14:00;3.53;;;1.50;;
17363;SDS011;8799;43.594;13.526;2023-11-21T02:16:28;2.43;;;1.67;;
17363;SDS011;8799;43.594;13.526;2023-11-21T02:18:58;2.97;;;1.70;;
17363;SDS011;8799;43.594;13.526;2023-11-21T02:21:26;2.40;;;1.50;;
17363;SDS011;8799;43.594;13.526;2023-11-21T02:23:56;4.57;;;1.43;;
17363;SDS011;8799;43.594;13.526;2023-11-21T02:26:26;3.57;;;1.60;;
17363;SDS011;8799;43.594;13.526;2023-11-21T02:28:54;3.83;;;2.07;;
17363;SDS011;8799;43.594;13.526;2023-11-21T02:31:23;1.80;;;1.33;;
17363;SDS011;8799;43.594;13.526;2023-11-21T02:33:51;3.10;;;1.80;;
17363;SDS011;8799;43.594;13.526;2023-11-21T02:36:19;2.90;;;1.60;;
17363;SDS011;8799;43.594;13.526;2023-11-21T02:38:48;2.80;;;1.70;;
17363;SDS011;8799;43.594;13.526;2023-11-21T02:41:18;3.23;;;1.43;;
17363;SDS011;8799;43.594;13.526;2023-11-21T02:43:46;4.37;;;1.40;;
17363;SDS011;8799;43.594;13.526;2023-11-21T02:46:14;2.17;;;1.37;;
17363;SDS011;8799;43.594;13.526;2023-11-21T02:48:42;2.27;;;1.63;;
17363;SDS011;8799;43.594;13.526;2023-11-21T02:51:10;4.97;;;1.83;;
17363;SDS011;8799;43.594;13.526;2023-11-21T02:53:37;3.20;;;1.93;;
17363;SDS011;8799;43.594;13.526;2023-11-21T02:56:05;3.87;;;1.60;;
17363;SDS011;8799;43.594;13.526;2023-11-21T02:58:35;1.30;;;1.20;;
17363;SDS011;8799;43.594;13.526;2023-11-21T03:01:03;3.67;;;1.70;;
17363;SDS011;8799;43.594;13.526;2023-11-21T03:03:32;4.73;;;2.00;;
17363;SDS011;8799;43.594;13.526;2023-11-21T03:06:00;2.27;;;1.50;;
17363;SDS011;8799;43.594;13.526;2023-11-21T03:08:28;3.00;;;1.43;;
17363;SDS011;8799;43.594;13.526;2023-11-21T03:10:56;4.30;;;1.60;;
17363;SDS011;8799;43.594;13.526;2023-11-21T03:13:24;2.47;;;1.63;;
17363;SDS011;8799;43.594;13.526;2023-11-21T03:15:53;2.17;;;1.67;;
17363;SDS011;8799;43.594;13.526;2023-11-21T03:18:22;3.67;;;1.80;;
17363;SDS011;8799;43.594;13.526;2023-11-21T03:20:51;1.33;;;1.23;;
17363;SDS011;8799;43.594;13.526;2023-11-21T03:23:19;2.83;;;1.37;;
17363;SDS011;8799;43.594;13.526;2023-11-21T03:25:47;3.23;;;1.77;;
17363;SDS011;8799;43.594;13.526;2023-11-21T03:28:16;2.80;;;1.77;;
17363;SDS011;8799;43.594;13.526;2023-11-21T03:30:44;3.83;;;1.63;;
17363;SDS011;8799;43.594;13.526;2023-11-21T03:33:13;2.60;;;1.67;;
17363;SDS011;8799;43.594;13.526;2023-11-21T03:35:41;4.93;;;1.90;;
17363;SDS011;8799;43.594;13.526;2023-11-21T03:38:09;2.37;;;1.70;;
17363;SDS011;8799;43.594;13.526;2023-11-21T03:40:37;3.70;;;1.53;;
17363;SDS011;8799;43.594;13.526;2023-11-21T03:43:06;3.10;;;1.93;;
17363;SDS011;8799;43.594;13.526;2023-11-21T03:45:34;2.27;;;1.70;;
17363;SDS011;8799;43.594;13.526;2023-11-21T03:48:02;1.97;;;1.20;;
17363;SDS011;8799;43.594;13.526;2023-11-21T03:50:32;3.27;;;1.90;;
17363;SDS011;8799;43.594;13.526;2023-11-21T03:53:00;3.90;;;1.80;;
17363;SDS011;8799;43.594;13.526;2023-11-21T03:55:28;2.73;;;1.60;;
17363;SDS011;8799;43.594;13.526;2023-11-21T03:57:56;2.47;;;1.83;;
17363;SDS011;8799;43.594;13.526;2023-11-21T04:00:25;2.23;;;1.60;;
17363;SDS011;8799;43.594;13.526;2023-11-21T04:02:53;4.20;;;1.90;;
17363;SDS011;8799;43.594;13.526;2023-11-21T04:05:21;3.77;;;2.20;;
17363;SDS011;8799;43.594;13.526;2023-11-21T04:07:51;2.20;;;1.60;;
17363;SDS011;8799;43.594;13.526;2023-11-21T04:10:19;6.00;;;1.80;;
17363;SDS011;8799;43.594;13.526;2023-11-21T04:12:47;3.60;;;2.00;;
17363;SDS011;8799;43.594;13.526;2023-11-21T04:15:15;3.50;;;1.83;;
17363;SDS011;8799;43.594;13.526;2023-11-21T04:17:43;4.27;;;1.90;;
17363;SDS011;8799;43.594;13.526;2023-11-21T04:20:11;2.13;;;1.87;;
17363;SDS011;8799;43.594;13.526;2023-11-21T04:22:39;2.20;;;1.77;;
17363;SDS011;8799;43.594;13.526;2023-11-21T04:25:10;2.67;;;1.77;;
17363;SDS011;8799;43.594;13.526;2023-11-21T04:27:39;3.03;;;1.83;;
17363;SDS011;8799;43.594;13.526;2023-11-21T04:30:09;4.60;;;1.93;;
17363;SDS011;8799;43.594;13.526;2023-11-21T04:32:38;5.13;;;1.90;;
17363;SDS011;8799;43.594;13.526;2023-11-21T04:35:06;2.83;;;1.70;;
17363;SDS011;8799;43.594;13.526;2023-11-21T04:37:34;3.33;;;1.80;;
17363;SDS011;8799;43.594;13.526;2023-11-21T04:40:02;3.13;;;1.70;;
17363;SDS011;8799;43.594;13.526;2023-11-21T04:42:34;3.87;;;2.27;;
17363;SDS011;8799;43.594;13.526;2023-11-21T04:45:03;2.00;;;1.53;;
17363;SDS011;8799;43.594;13.526;2023-11-21T04:47:33;2.57;;;1.80;;
17363;SDS011;8799;43.594;13.526;2023-11-21T04:50:01;4.13;;;1.93;;
17363;SDS011;8799;43.594;13.526;2023-11-21T04:52:29;4.30;;;2.10;;
17363;SDS011;8799;43.594;13.526;2023-11-21T04:54:58;3.37;;;2.30;;
17363;SDS011;8799;43.594;13.526;2023-11-21T04:57:26;2.90;;;2.03;;
17363;SDS011;8799;43.594;13.526;2023-11-21T04:59:57;3.07;;;1.77;;
17363;SDS011;8799;43.594;13.526;2023-11-21T05:02:25;5.20;;;2.50;;
17363;SDS011;8799;43.594;13.526;2023-11-21T05:04:53;3.50;;;1.97;;
17363;SDS011;8799;43.594;13.526;2023-11-21T05:07:21;5.17;;;2.17;;
17363;SDS011;8799;43.594;13.526;2023-11-21T05:09:49;4.43;;;2.07;;
17363;SDS011;8799;43.594;13.526;2023-11-21T05:12:17;3.53;;;1.83;;
17363;SDS011;8799;43.594;13.526;2023-11-21T05:14:45;4.13;;;2.10;;
17363;SDS011;8799;43.594;13.526;2023-11-21T05:17:15;2.93;;;1.77;;
17363;SDS011;8799;43.594;13.526;2023-11-21T05:19:43;3.37;;;1.67;;
17363;SDS011;8799;43.594;13.526;2023-11-21T05:22:13;2.70;;;1.73;;
17363;SDS011;8799;43.594;13.526;2023-11-21T05:24:41;6.07;;;1.93;;
17363;SDS011;8799;43.594;13.526;2023-11-21T05:27:09;3.30;;;2.07;;
17363;SDS011;8799;43.594;13.526;2023-11-21T05:29:37;3.97;;;2.23;;
17363;SDS011;8799;43.594;13.526;2023-11-21T05:32:05;4.57;;;2.40;;
17363;SDS011;8799;43.594;13.526;2023-11-21T05:34:35;3.20;;;1.80;;
17363;SDS011;8799;43.594;13.526;2023-11-21T05:37:03;2.33;;;1.63;;
17363;SDS011;8799;43.594;13.526;2023-11-21T05:39:30;2.60;;;1.67;;
17363;SDS011;8799;43.594;13.526;2023-11-21T05:41:59;6.90;;;2.27;;
17363;SDS011;8799;43.594;13.526;2023-11-21T05:44:27;4.00;;;2.00;;
17363;SDS011;8799;43.594;13.526;2023-11-21T05:46:55;3.47;;;2.10;;
17363;SDS011;8799;43.594;13.526;2023-11-21T05:49:24;4.40;;;2.50;;
17363;SDS011;8799;43.594;13.526;2023-11-21T05:51:54;3.17;;;1.90;;
17363;SDS011;8799;43.594;13.526;2023-11-21T05:54:23;4.67;;;2.20;;
17363;SDS011;8799;43.594;13.526;2023-11-21T05:56:51;3.20;;;2.10;;
17363;SDS011;8799;43.594;13.526;2023-11-21T05:59:19;3.73;;;2.20;;
17363;SDS011;8799;43.594;13.526;2023-11-21T06:01:47;3.10;;;1.80;;
17363;SDS011;8799;43.594;13.526;2023-11-21T06:04:15;5.30;;;2.20;;
17363;SDS011;8799;43.594;13.526;2023-11-21T06:06:43;3.37;;;2.07;;
17363;SDS011;8799;43.594;13.526;2023-11-21T06:09:13;4.37;;;2.43;;
17363;SDS011;8799;43.594;13.526;2023-11-21T06:11:41;3.67;;;2.20;;
17363;SDS011;8799;43.594;13.526;2023-11-21T06:14:09;3.67;;;1.90;;
17363;SDS011;8799;43.594;13.526;2023-11-21T06:16:37;2.23;;;1.57;;
17363;SDS011;8799;43.594;13.526;2023-11-21T06:19:05;3.00;;;1.87;;
17363;SDS011;8799;43.594;13.526;2023-11-21T06:21:33;12.37;;;2.20;;
17363;SDS011;8799;43.594;13.526;2023-11-21T06:24:01;3.73;;;1.87;;
17363;SDS011;8799;43.594;13.526;2023-11-21T06:26:31;4.07;;;1.80;;
17363;SDS011;8799;43.594;13.526;2023-11-21T06:28:59;3.93;;;2.20;;
17363;SDS011;8799;43.594;13.526;2023-11-21T06:31:28;3.50;;;2.20;;
17363;SDS011;8799;43.594;13.526;2023-11-21T06:33:56;9.40;;;2.70;;
17363;SDS011;8799;43.594;13.526;2023-11-21T06:36:24;5.23;;;2.23;;
17363;SDS011;8799;43.594;13.526;2023-11-21T06:38:53;9.40;;;3.00;;
17363;SDS011;8799;43.594;13.526;2023-11-21T06:41:22;4.63;;;2.83;;
17363;SDS011;8799;43.594;13.526;2023-11-21T06:43:51;4.60;;;2.50;;
17363;SDS011;8799;43.594;13.526;2023-11-21T06:46:19;5.07;;;2.67;;
17363;SDS011;8799;43.594;13.526;2023-11-21T06:48:47;5.23;;;2.77;;
17363;SDS011;8799;43.594;13.526;2023-11-21T06:51:14;8.13;;;3.17;;
17363;SDS011;8799;43.594;13.526;2023-11-21T06:53:42;5.30;;;2.70;;
17363;SDS011;8799;43.594;13.526;2023-11-21T06:56:15;5.97;;;3.20;;
17363;SDS011;8799;43.594;13.526;2023-11-21T06:58:43;5.67;;;3.10;;
17363;SDS011;8799;43.594;13.526;2023-11-21T07:01:14;5.07;;;2.83;;
17363;SDS011;8799;43.594;13.526;2023-11-21T07:03:41;8.70;;;3.00;;
17363;SDS011;8799;43.594;13.526;2023-11-21T07:06:09;10.47;;;3.80;;
17363;SDS011;8799;43.594;13.526;2023-11-21T07:08:37;16.07;;;3.77;;
17363;SDS011;8799;43.594;13.526;2023-11-21T07:11:05;7.47;;;3.07;;
17363;SDS011;8799;43.594;13.526;2023-11-21T07:13:33;12.50;;;2.67;;
17363;SDS011;8799;43.594;13.526;2023-11-21T07:16:02;14.33;;;3.83;;
17363;SDS011;8799;43.594;13.526;2023-11-21T07:18:31;11.43;;;3.40;;
17363;SDS011;8799;43.594;13.526;2023-11-21T07:20:59;9.50;;;3.50;;
17363;SDS011;8799;43.594;13.526;2023-11-21T07:23:27;7.67;;;2.97;;
17363;SDS011;8799;43.594;13.526;2023-11-21T07:25:54;14.80;;;3.70;;
17363;SDS011;8799;43.594;13.526;2023-11-21T07:28:22;5.63;;;2.87;;
17363;SDS011;8799;43.594;13.526;2023-11-21T07:30:52;6.67;;;2.73;;
17363;SDS011;8799;43.594;13.526;2023-11-21T07:33:19;8.10;;;3.27;;
17363;SDS011;8799;43.594;13.526;2023-11-21T07:35:50;6.70;;;3.40;;
17363;SDS011;8799;43.594;13.526;2023-11-21T07:38:19;8.30;;;3.70;;
17363;SDS011;8799;43.594;13.526;2023-11-21T07:40:46;7.10;;;3.57;;
17363;SDS011;8799;43.594;13.526;2023-11-21T07:43:14;5.67;;;2.73;;
17363;SDS011;8799;43.594;13.526;2023-11-21T07:45:42;4.93;;;2.70;;
17363;SDS011;8799;43.594;13.526;2023-11-21T07:48:10;7.20;;;2.63;;
17363;SDS011;8799;43.594;13.526;2023-11-21T07:50:38;7.50;;;3.00;;
17363;SDS011;8799;43.594;13.526;2023-11-21T07:53:08;8.53;;;3.10;;
17363;SDS011;8799;43.594;13.526;2023-11-21T07:55:36;5.17;;;2.97;;
17363;SDS011;8799;43.594;13.526;2023-11-21T07:58:04;8.97;;;3.20;;
17363;SDS011;8799;43.594;13.526;2023-11-21T08:00:32;13.90;;;7.77;;
17363;SDS011;8799;43.594;13.526;2023-11-21T08:03:00;21.10;;;6.40;;
17363;SDS011;8799;43.594;13.526;2023-11-21T08:05:28;13.20;;;7.50;;
17363;SDS011;8799;43.594;13.526;2023-11-21T08:07:55;15.50;;;8.90;;
17363;SDS011;8799;43.594;13.526;2023-11-21T08:10:25;18.43;;;10.47;;
17363;SDS011;8799;43.594;13.526;2023-11-21T08:12:53;25.87;;;11.87;;
17363;SDS011;8799;43.594;13.526;2023-11-21T08:15:21;27.43;;;13.63;;
17363;SDS011;8799;43.594;13.526;2023-11-21T08:17:49;25.50;;;14.23;;
17363;SDS011;8799;43.594;13.526;2023-11-21T08:20:17;24.60;;;14.33;;
17363;SDS011;8799;43.594;13.526;2023-11-21T08:22:45;32.57;;;16.07;;
17363;SDS011;8799;43.594;13.526;2023-11-21T08:25:14;29.33;;;16.03;;
17363;SDS011;8799;43.594;13.526;2023-11-21T08:27:46;33.27;;;16.03;;
17363;SDS011;8799;43.594;13.526;2023-11-21T08:30:14;30.33;;;15.50;;
17363;SDS011;8799;43.594;13.526;2023-11-21T08:32:44;28.50;;;15.23;;
17363;SDS011;8799;43.594;13.526;2023-11-21T08:35:11;27.47;;;15.77;;
17363;SDS011;8799;43.594;13.526;2023-11-21T08:37:39;27.83;;;16.83;;
17363;SDS011;8799;43.594;13.526;2023-11-21T08:40:08;28.57;;;17.23;;
17363;SDS011;8799;43.594;13.526;2023-11-21T08:42:37;29.90;;;16.90;;
17363;SDS011;8799;43.594;13.526;2023-11-21T08:45:08;28.43;;;15.37;;
17363;SDS011;8799;43.594;13.526;2023-11-21T08:47:38;25.23;;;13.93;;
17363;SDS011;8799;43.594;13.526;2023-11-21T08:50:06;21.67;;;13.27;;
17363;SDS011;8799;43.594;13.526;2023-11-21T08:52:35;23.53;;;13.33;;
17363;SDS011;8799;43.594;13.526;2023-11-21T08:55:03;25.60;;;13.43;;
17363;SDS011;8799;43.594;13.526;2023-11-21T08:57:33;29.67;;;13.30;;
17363;SDS011;8799;43.594;13.526;2023-11-21T09:00:01;23.53;;;13.47;;
17363;SDS011;8799;43.594;13.526;2023-11-21T09:02:32;28.93;;;13.20;;
17363;SDS011;8799;43.594;13.526;2023-11-21T09:05:00;24.90;;;12.73;;
17363;SDS011;8799;43.594;13.526;2023-11-21T09:07:29;26.63;;;14.37;;
17363;SDS011;8799;43.594;13.526;2023-11-21T09:09:57;27.73;;;13.93;;
17363;SDS011;8799;43.594;13.526;2023-11-21T09:12:25;19.57;;;13.20;;
17363;SDS011;8799;43.594;13.526;2023-11-21T09:14:53;22.47;;;12.47;;
17363;SDS011;8799;43.594;13.526;2023-11-21T09:17:21;23.00;;;13.37;;
17363;SDS011;8799;43.594;13.526;2023-11-21T09:19:51;22.57;;;13.67;;
17363;SDS011;8799;43.594;13.526;2023-11-21T09:22:19;23.37;;;12.93;;
17363;SDS011;8799;43.594;13.526;2023-11-21T09:24:47;22.53;;;12.00;;
17363;SDS011;8799;43.594;13.526;2023-11-21T09:27:15;24.60;;;12.37;;
17363;SDS011;8799;43.594;13.526;2023-11-21T09:29:43;23.17;;;13.23;;
17363;SDS011;8799;43.594;13.526;2023-11-21T09:32:12;20.87;;;12.33;;
17363;SDS011;8799;43.594;13.526;2023-11-21T09:34:41;23.23;;;13.00;;
17363;SDS011;8799;43.594;13.526;2023-11-21T09:37:11;26.70;;;12.10;;
17363;SDS011;8799;43.594;13.526;2023-11-21T09:39:39;24.37;;;13.43;;
17363;SDS011;8799;43.594;13.526;2023-11-21T09:42:08;20.27;;;11.80;;
17363;SDS011;8799;43.594;13.526;2023-11-21T09:44:41;22.03;;;11.33;;
17363;SDS011;8799;43.594;13.526;2023-11-21T09:47:13;20.17;;;11.67;;
17363;SDS011;8799;43.594;13.526;2023-11-21T09:49:42;21.63;;;11.80;;
17363;SDS011;8799;43.594;13.526;2023-11-21T09:52:13;21.80;;;11.50;;
17363;SDS011;8799;43.594;13.526;2023-11-21T09:54:44;21.00;;;10.80;;
17363;SDS011;8799;43.594;13.526;2023-11-21T09:57:12;22.97;;;12.43;;
17363;SDS011;8799;43.594;13.526;2023-11-21T09:59:41;23.70;;;12.30;;
17363;SDS011;8799;43.594;13.526;2023-11-21T10:02:10;18.53;;;10.63;;
17363;SDS011;8799;43.594;13.526;2023-11-21T10:04:38;20.70;;;10.63;;
17363;SDS011;8799;43.594;13.526;2023-11-21T10:07:07;20.47;;;9.70;;
17363;SDS011;8799;43.594;13.526;2023-11-21T10:09:37;17.93;;;10.63;;
17363;SDS011;8799;43.594;13.526;2023-11-21T10:12:04;20.83;;;11.20;;
17363;SDS011;8799;43.594;13.526;2023-11-21T10:14:33;18.73;;;11.37;;
17363;SDS011;8799;43.594;13.526;2023-11-21T10:17:02;19.07;;;10.67;;
17363;SDS011;8799;43.594;13.526;2023-11-21T10:19:30;20.97;;;10.40;;
17363;SDS011;8799;43.594;13.526;2023-11-21T10:21:59;20.77;;;10.43;;
17363;SDS011;8799;43.594;13.526;2023-11-21T10:24:29;19.93;;;10.03;;
17363;SDS011;8799;43.594;13.526;2023-11-21T10:26:58;18.27;;;9.80;;
17363;SDS011;8799;43.594;13.526;2023-11-21T10:29:28;17.90;;;10.57;;
17363;SDS011;8799;43.594;13.526;2023-11-21T10:32:01;17.73;;;9.97;;
17363;SDS011;8799;43.594;13.526;2023-11-21T10:34:29;18.07;;;9.60;;
17363;SDS011;8799;43.594;13.526;2023-11-21T10:36:58;17.03;;;10.00;;
17363;SDS011;8799;43.594;13.526;2023-11-21T10:39:26;16.33;;;10.20;;
17363;SDS011;8799;43.594;13.526;2023-11-21T10:41:57;16.00;;;9.70;;
17363;SDS011;8799;43.594;13.526;2023-11-21T10:44:27;16.07;;;9.07;;
17363;SDS011;8799;43.594;13.526;2023-11-21T10:49:37;16.23;;;9.70;;
17363;SDS011;8799;43.594;13.526;2023-11-21T10:52:05;17.20;;;10.27;;
17363;SDS011;8799;43.594;13.526;2023-11-21T10:54:34;18.23;;;9.40;;
17363;SDS011;8799;43.594;13.526;2023-11-21T10:57:04;16.70;;;9.17;;
17363;SDS011;8799;43.594;13.526;2023-11-21T10:59:32;15.27;;;8.70;;
17363;SDS011;8799;43.594;13.526;2023-11-21T11:02:01;13.83;;;8.03;;
17363;SDS011;8799;43.594;13.526;2023-11-21T11:04:30;15.53;;;8.87;;
17363;SDS011;8799;43.594;13.526;2023-11-21T11:07:00;20.13;;;8.87;;
17363;SDS011;8799;43.594;13.526;2023-11-21T11:09:29;13.13;;;7.97;;
17363;SDS011;8799;43.594;13.526;2023-11-21T11:12:00;11.77;;;7.73;;
17363;SDS011;8799;43.594;13.526;2023-11-21T11:14:31;14.60;;;8.37;;
17363;SDS011;8799;43.594;13.526;2023-11-21T11:17:00;11.40;;;7.27;;
17363;SDS011;8799;43.594;13.526;2023-11-21T11:19:30;15.97;;;7.83;;
17363;SDS011;8799;43.594;13.526;2023-11-21T11:22:01;12.40;;;6.33;;
17363;SDS011;8799;43.594;13.526;2023-11-21T11:27:27;11.07;;;7.10;;
17363;SDS011;8799;43.594;13.526;2023-11-21T11:30:02;12.30;;;7.70;;
17363;SDS011;8799;43.594;13.526;2023-11-21T11:32:36;15.13;;;7.63;;
17363;SDS011;8799;43.594;13.526;2023-11-21T11:35:08;12.13;;;7.37;;
17363;SDS011;8799;43.594;13.526;2023-11-21T11:37:41;12.80;;;7.80;;
17363;SDS011;8799;43.594;13.526;2023-11-21T11:40:11;17.90;;;10.35;;
17363;SDS011;8799;43.594;13.526;2023-11-21T11:42:51;19.17;;;10.00;;
17363;SDS011;8799;43.594;13.526;2023-11-21T11:45:24;24.13;;;11.73;;
17363;SDS011;8799;43.594;13.526;2023-11-21T11:47:56;18.37;;;11.10;;
17363;SDS011;8799;43.594;13.526;2023-11-21T11:50:24;17.07;;;10.50;;
17363;SDS011;8799;43.594;13.526;2023-11-21T11:52:53;18.80;;;11.17;;
17363;SDS011;8799;43.594;13.526;2023-11-21T11:55:23;19.27;;;12.03;;
17363;SDS011;8799;43.594;13.526;2023-11-21T11:57:56;19.67;;;11.97;;
17363;SDS011;8799;43.594;13.526;2023-11-21T12:00:36;26.07;;;12.80;;
17363;SDS011;8799;43.594;13.526;2023-11-21T12:03:06;22.93;;;12.97;;
17363;SDS011;8799;43.594;13.526;2023-11-21T12:05:35;26.37;;;13.17;;
17363;SDS011;8799;43.594;13.526;2023-11-21T12:08:04;24.07;;;13.50;;
17363;SDS011;8799;43.594;13.526;2023-11-21T12:10:34;26.73;;;14.50;;
17363;SDS011;8799;43.594;13.526;2023-11-21T12:13:05;26.33;;;15.20;;
17363;SDS011;8799;43.594;13.526;2023-11-21T12:15:34;26.43;;;15.40;;
17363;SDS011;8799;43.594;13.526;2023-11-21T12:18:03;24.13;;;15.13;;
17363;SDS011;8799;43.594;13.526;2023-11-21T12:20:30;23.63;;;14.50;;
17363;SDS011;8799;43.594;13.526;2023-11-21T12:23:03;28.47;;;15.57;;
17363;SDS011;8799;43.594;13.526;2023-11-21T12:25:32;33.80;;;16.43;;
17363;SDS011;8799;43.594;13.526;2023-11-21T12:28:02;26.27;;;14.90;;
17363;SDS011;8799;43.594;13.526;2023-11-21T12:30:31;25.27;;;15.73;;
17363;SDS011;8799;43.594;13.526;2023-11-21T12:33:02;30.87;;;16.93;;
17363;SDS011;8799;43.594;13.526;2023-11-21T12:35:34;26.57;;;15.60;;
17363;SDS011;8799;43.594;13.526;2023-11-21T12:38:04;32.60;;;17.37;;
17363;SDS011;8799;43.594;13.526;2023-11-21T12:40:34;27.20;;;16.27;;
17363;SDS011;8799;43.594;13.526;2023-11-21T12:43:03;31.93;;;16.23;;
17363;SDS011;8799;43.594;13.526;2023-11-21T12:45:32;28.90;;;16.53;;
17363;SDS011;8799;43.594;13.526;2023-11-21T12:48:02;27.27;;;15.30;;
17363;SDS011;8799;43.594;13.526;2023-11-21T12:50:32;22.33;;;14.67;;
17363;SDS011;8799;43.594;13.526;2023-11-21T12:53:02;27.57;;;15.17;;
17363;SDS011;8799;43.594;13.526;2023-11-21T12:55:31;27.20;;;14.57;;
17363;SDS011;8799;43.594;13.526;2023-11-21T12:58:04;20.43;;;13.63;;
17363;SDS011;8799;43.594;13.526;2023-11-21T13:00:35;21.60;;;12.73;;
17363;SDS011;8799;43.594;13.526;2023-11-21T13:03:05;24.53;;;13.13;;
17363;SDS011;8799;43.594;13.526;2023-11-21T13:05:34;25.43;;;14.37;;
17363;SDS011;8799;43.594;13.526;2023-11-21T13:08:04;25.77;;;13.43;;
17363;SDS011;8799;43.594;13.526;2023-11-21T13:10:33;20.37;;;11.50;;
17363;SDS011;8799;43.594;13.526;2023-11-21T13:13:02;18.07;;;11.60;;
17363;SDS011;8799;43.594;13.526;2023-11-21T13:15:31;22.07;;;11.57;;
17363;SDS011;8799;43.594;13.526;2023-11-21T13:18:00;20.03;;;10.53;;
17363;SDS011;8799;43.594;13.526;2023-11-21T13:20:30;17.73;;;10.97;;
17363;SDS011;8799;43.594;13.526;2023-11-21T13:22:58;18.00;;;9.97;;
17363;SDS011;8799;43.594;13.526;2023-11-21T13:25:27;18.27;;;9.70;;
17363;SDS011;8799;43.594;13.526;2023-11-21T13:27:56;18.40;;;11.13;;
17363;SDS011;8799;43.594;13.526;2023-11-21T13:30:25;17.00;;;9.43;;
17363;SDS011;8799;43.594;13.526;2023-11-21T13:32:58;15.87;;;9.60;;
17363;SDS011;8799;43.594;13.526;2023-11-21T13:35:27;17.07;;;9.30;;
17363;SDS011;8799;43.594;13.526;2023-11-21T13:38:05;17.40;;;9.83;;
17363;SDS011;8799;43.594;13.526;2023-11-21T13:40:32;15.83;;;9.70;;
17363;SDS011;8799;43.594;13.526;2023-11-21T13:43:07;16.30;;;8.53;;
17363;SDS011;8799;43.594;13.526;2023-11-21T13:45:35;15.57;;;8.40;;
17363;SDS011;8799;43.594;13.526;2023-11-21T13:48:05;17.70;;;8.80;;
17363;SDS011;8799;43.594;13.526;2023-11-21T13:50:35;12.50;;;7.30;;
17363;SDS011;8799;43.594;13.526;2023-11-21T13:53:05;14.60;;;7.80;;
17363;SDS011;8799;43.594;13.526;2023-11-21T13:55:47;12.33;;;7.10;;
17363;SDS011;8799;43.594;13.526;2023-11-21T13:58:15;15.60;;;7.57;;
17363;SDS011;8799;43.594;13.526;2023-11-21T14:00:48;12.30;;;7.87;;
17363;SDS011;8799;43.594;13.526;2023-11-21T14:03:21;14.10;;;6.97;;
17363;SDS011;8799;43.594;13.526;2023-11-21T14:05:57;14.03;;;7.13;;
17363;SDS011;8799;43.594;13.526;2023-11-21T14:08:27;14.17;;;6.83;;
17363;SDS011;8799;43.594;13.526;2023-11-21T14:10:55;10.67;;;7.00;;
17363;SDS011;8799;43.594;13.526;2023-11-21T14:13:24;13.00;;;6.60;;
17363;SDS011;8799;43.594;13.526;2023-11-21T14:15:53;11.37;;;6.60;;
17363;SDS011;8799;43.594;13.526;2023-11-21T14:18:24;11.27;;;6.03;;
17363;SDS011;8799;43.594;13.526;2023-11-21T14:20:55;12.47;;;6.40;;
17363;SDS011;8799;43.594;13.526;2023-11-21T14:23:24;12.70;;;6.23;;
17363;SDS011;8799;43.594;13.526;2023-11-21T14:25:53;15.17;;;6.70;;
17363;SDS011;8799;43.594;13.526;2023-11-21T14:28:22;14.43;;;6.40;;
17363;SDS011;8799;43.594;13.526;2023-11-21T14:30:50;16.00;;;5.90;;
17363;SDS011;8799;43.594;13.526;2023-11-21T14:33:18;15.67;;;5.73;;
17363;SDS011;8799;43.594;13.526;2023-11-21T14:35:46;12.50;;;5.87;;
17363;SDS011;8799;43.594;13.526;2023-11-21T14:38:15;11.67;;;5.60;;
17363;SDS011;8799;43.594;13.526;2023-11-21T14:40:43;11.53;;;5.20;;
17363;SDS011;8799;43.594;13.526;2023-11-21T14:43:14;12.90;;;6.50;;
17363;SDS011;8799;43.594;13.526;2023-11-21T14:45:44;9.57;;;5.77;;
17363;SDS011;8799;43.594;13.526;2023-11-21T14:48:12;9.57;;;5.27;;
17363;SDS011;8799;43.594;13.526;2023-11-21T14:50:49;16.33;;;6.47;;
17363;SDS011;8799;43.594;13.526;2023-11-21T14:53:38;16.67;;;6.13;;